Lady Debbie — J8NH — position and weather

sailwx.info

Track history (hours):
 
Tides and Currents Weather Stations Pressure Air Temp Water Temp Dewpoint Dewpoint Depression Visibility Wind Speed Wind Dir Waves Ship Positions

Lady Debbie

Last reported at 2017-Nov-18 01:30 UTC. Time now 2017-Nov-20 15:28 UTC.
Position N 16°25' W 062°14'.

Length 32 m; draft 5.2 m.

Type: Tug. MMSI: 377901022.

Date/timePositionNaut miles runAvg speedWind from/ knotsBaromVisibWave heightAir tempDewpointWater temp
2017-Nov-18 01:30N 16°25' W 062°14'3 6.6
2017-Nov-18 01:00N 16°28' W 062°15'3 6.6
2017-Nov-18 00:30N 16°31' W 062°17'3 6.6
2017-Nov-18 00:00N 16°34' W 062°18'4 6.5
2017-Nov-17 23:19N 16°38' W 062°20'2 6.8
2017-Nov-17 23:00N 16°40' W 062°22'3 7.0
2017-Nov-17 22:30N 16°43' W 062°23'3 6.9
2017-Nov-17 22:00N 16°46' W 062°25'2 0.1
2017-Nov-17 06:44N 16°47' W 062°26'2 7.4
2017-Nov-17 06:30N 16°46' W 062°25'4 7.1
2017-Nov-17 06:00N 16°42' W 062°24'4 7.2
2017-Nov-17 05:30N 16°39' W 062°22'4 7.3
2017-Nov-17 05:00N 16°36' W 062°20'4 7.2
2017-Nov-17 04:30N 16°33' W 062°18'4 7.1
2017-Nov-17 04:00N 16°30' W 062°16'4 7.1
2017-Nov-17 03:30N 16°27' W 062°14'4 7.0
2017-Nov-17 02:59N 16°24' W 062°12'4 7.0
2017-Nov-17 02:28N 16°21' W 062°10'123 7.5
2017-Nov-16 10:03N 14°35' W 061°05'0 8.6
2017-Nov-16 10:00N 14°35' W 061°05'  
2017-Nov-12 16:59N 14°36' W 061°04'0 0.6
2017-Nov-12 16:27N 14°36' W 061°04'0 0.0
2017-Nov-11 02:11N 14°36' W 061°04'1 3.6
2017-Nov-11 01:59N 14°35' W 061°03'0 0.3
2017-Nov-11 01:30N 14°35' W 061°03'1 0.0
2017-Nov-09 01:20N 14°36' W 061°04'0 0.9
2017-Nov-09 01:00N 14°36' W 061°04'  
Track history (hours):
 
Tides and Currents Weather Stations Pressure Air Temp Water Temp Dewpoint Dewpoint Depression Visibility Wind Speed Wind Dir Waves Ship Positions

Lady Debbie

Last reported at 2017-Nov-18 01:30 UTC. Time now 2017-Nov-20 15:28 UTC.
Position N 16°25' W 062°14'.

Length 32 m; draft 5.2 m.

Type: Tug. MMSI: 377901022.

Date/timePositionNaut miles runAvg speedWind from/ knotsBaromVisibWave heightAir tempDewpointWater temp
2017-Nov-18 01:30N 16°25' W 062°14'3 6.6
2017-Nov-18 01:00N 16°28' W 062°15'3 6.6
2017-Nov-18 00:30N 16°31' W 062°17'3 6.6
2017-Nov-18 00:00N 16°34' W 062°18'4 6.5
2017-Nov-17 23:19N 16°38' W 062°20'2 6.8
2017-Nov-17 23:00N 16°40' W 062°22'3 7.0
2017-Nov-17 22:30N 16°43' W 062°23'3 6.9
2017-Nov-17 22:00N 16°46' W 062°25'2 0.1
2017-Nov-17 06:44N 16°47' W 062°26'2 7.4
2017-Nov-17 06:30N 16°46' W 062°25'4 7.1
2017-Nov-17 06:00N 16°42' W 062°24'4 7.2
2017-Nov-17 05:30N 16°39' W 062°22'4 7.3
2017-Nov-17 05:00N 16°36' W 062°20'4 7.2
2017-Nov-17 04:30N 16°33' W 062°18'4 7.1
2017-Nov-17 04:00N 16°30' W 062°16'4 7.1
2017-Nov-17 03:30N 16°27' W 062°14'4 7.0
2017-Nov-17 02:59N 16°24' W 062°12'4 7.0
2017-Nov-17 02:28N 16°21' W 062°10'123 7.5
2017-Nov-16 10:03N 14°35' W 061°05'0 8.6
2017-Nov-16 10:00N 14°35' W 061°05'  
2017-Nov-12 16:59N 14°36' W 061°04'0 0.6
2017-Nov-12 16:27N 14°36' W 061°04'0 0.0
2017-Nov-11 02:11N 14°36' W 061°04'1 3.6
2017-Nov-11 01:59N 14°35' W 061°03'0 0.3
2017-Nov-11 01:30N 14°35' W 061°03'1 0.0
2017-Nov-09 01:20N 14°36' W 061°04'0 0.9
2017-Nov-09 01:00N 14°36' W 061°04'  

Dump ship's entire track history